createdAt,value
2022-11-10T00:00:38.895Z,1010.74
2022-11-10T00:01:38.869Z,1010.77
2022-11-10T00:02:38.855Z,1010.79
2022-11-10T00:03:38.872Z,1010.79
2022-11-10T00:04:38.837Z,1010.81
2022-11-10T00:05:38.823Z,1010.74
2022-11-10T00:06:38.882Z,1010.78
2022-11-10T00:07:38.799Z,1010.83
2022-11-10T00:08:38.795Z,1010.83
2022-11-10T00:09:38.801Z,1010.80
2022-11-10T00:10:38.771Z,1010.79
2022-11-10T00:11:38.766Z,1010.84
2022-11-10T00:12:38.746Z,1010.84
2022-11-10T00:13:38.783Z,1010.86
2022-11-10T00:14:38.782Z,1010.83
2022-11-10T00:15:38.724Z,1010.83
2022-11-10T00:16:38.739Z,1010.86
2022-11-10T00:17:38.690Z,1010.84
2022-11-10T00:18:38.687Z,1010.87
2022-11-10T00:19:38.667Z,1010.87
2022-11-10T00:20:38.656Z,1010.92
2022-11-10T00:21:38.649Z,1010.95
2022-11-10T00:22:38.660Z,1010.97
2022-11-10T00:23:38.626Z,1010.92
2022-11-10T00:24:38.613Z,1010.96
2022-11-10T00:25:38.601Z,1010.96
2022-11-10T00:26:38.621Z,1010.96
2022-11-10T00:27:38.576Z,1010.97
2022-11-10T00:28:38.575Z,1010.96
2022-11-10T00:29:38.578Z,1010.99
2022-11-10T00:30:38.551Z,1010.96
2022-11-10T00:31:38.543Z,1010.98
2022-11-10T00:32:38.556Z,1011.00
2022-11-10T00:33:38.520Z,1011.01
2022-11-10T00:34:38.503Z,1011.03
2022-11-10T00:35:38.491Z,1011.07
2022-11-10T00:36:38.503Z,1011.08
2022-11-10T00:37:38.469Z,1011.07
2022-11-10T00:38:38.471Z,1011.06
2022-11-10T00:39:38.446Z,1011.08
2022-11-10T00:40:38.440Z,1011.03
2022-11-10T00:41:38.455Z,1011.10
2022-11-10T00:42:38.418Z,1011.09
2022-11-10T00:43:38.402Z,1011.07
2022-11-10T00:44:38.398Z,1011.03
2022-11-10T00:45:38.402Z,1011.03
2022-11-10T00:46:38.392Z,1011.11
2022-11-10T00:47:38.380Z,1011.10
2022-11-10T00:48:38.357Z,1011.10
2022-11-10T00:49:38.341Z,1011.10
2022-11-10T00:50:38.327Z,1011.11
2022-11-10T00:51:38.317Z,1011.09
2022-11-10T00:52:38.337Z,1011.17
2022-11-10T00:53:38.294Z,1011.08
2022-11-10T00:54:38.285Z,1011.05
2022-11-10T00:55:38.273Z,1011.15
2022-11-10T00:56:38.266Z,1011.11
2022-11-10T00:57:38.250Z,1011.15
2022-11-10T00:58:38.255Z,1011.16
2022-11-10T00:59:38.228Z,1011.15
2022-11-10T01:00:38.218Z,1011.20
2022-11-10T01:01:38.298Z,1011.24
2022-11-10T01:02:38.221Z,1011.27
2022-11-10T01:03:38.212Z,1011.29
2022-11-10T01:04:38.182Z,1011.31
2022-11-10T01:05:38.168Z,1011.16
2022-11-10T01:06:38.207Z,1011.20
2022-11-10T01:07:38.160Z,1011.21
2022-11-10T01:08:38.131Z,1011.22
2022-11-10T01:09:38.130Z,1011.20
2022-11-10T01:10:38.113Z,1011.32
2022-11-10T01:11:38.106Z,1011.25
2022-11-10T01:12:38.115Z,1011.27
2022-11-10T01:13:38.076Z,1011.22
2022-11-10T01:14:38.066Z,1011.28
2022-11-10T01:15:38.056Z,1011.24
2022-11-10T01:16:38.042Z,1011.26
2022-11-10T01:17:38.086Z,1011.28
2022-11-10T01:18:38.046Z,1011.24
2022-11-10T01:19:38.008Z,1011.21
2022-11-10T01:20:38.006Z,1011.32
2022-11-10T01:21:37.987Z,1011.31
2022-11-10T01:22:37.985Z,1011.34
2022-11-10T01:23:37.994Z,1011.38
2022-11-10T01:24:37.962Z,1011.39
2022-11-10T01:25:37.947Z,1011.36
2022-11-10T01:26:37.937Z,1011.42
2022-11-10T01:27:37.949Z,1011.38
2022-11-10T01:28:37.934Z,1011.40
2022-11-10T01:29:37.903Z,1011.40
2022-11-10T01:30:37.890Z,1011.39
2022-11-10T01:31:37.881Z,1011.38
2022-11-10T01:32:37.867Z,1011.49
2022-11-10T01:33:37.901Z,1011.42
2022-11-10T01:34:37.846Z,1011.35
2022-11-10T01:35:37.837Z,1011.39
2022-11-10T01:36:37.830Z,1011.44
2022-11-10T01:37:37.835Z,1011.42
2022-11-10T01:38:37.832Z,1011.47
2022-11-10T01:39:37.792Z,1011.51
2022-11-10T01:40:37.824Z,1011.51
2022-11-10T01:41:37.772Z,1011.52
2022-11-10T01:42:37.760Z,1011.60
2022-11-10T01:43:37.747Z,1011.64
2022-11-10T01:44:37.760Z,1011.65
2022-11-10T01:45:37.728Z,1011.63
2022-11-10T01:46:37.716Z,1011.70
2022-11-10T01:47:37.702Z,1011.55
2022-11-10T01:48:37.699Z,1011.64
2022-11-10T01:49:37.717Z,1011.70
2022-11-10T01:50:37.671Z,1011.67
2022-11-10T01:51:37.664Z,1011.69
2022-11-10T01:52:37.646Z,1011.69
2022-11-10T01:53:37.658Z,1011.64
2022-11-10T01:54:37.652Z,1011.75
2022-11-10T01:55:37.614Z,1011.75
2022-11-10T01:56:37.603Z,1011.72
2022-11-10T01:57:37.591Z,1011.72
2022-11-10T01:58:37.612Z,1011.75
2022-11-10T01:59:37.575Z,1011.76
2022-11-10T02:00:37.617Z,1011.81
2022-11-10T02:01:37.547Z,1011.79
2022-11-10T02:02:37.537Z,1011.79
2022-11-10T02:03:37.551Z,1011.83
2022-11-10T02:04:37.522Z,1011.80
2022-11-10T02:05:37.523Z,1011.78
2022-11-10T02:06:37.562Z,1011.83
2022-11-10T02:07:37.481Z,1011.80
2022-11-10T02:08:37.541Z,1011.80
2022-11-10T02:09:37.462Z,1011.78
2022-11-10T02:10:37.456Z,1011.78
2022-11-10T02:11:37.439Z,1011.77
2022-11-10T02:12:37.493Z,1011.85
2022-11-10T02:13:37.438Z,1011.91
2022-11-10T02:14:37.405Z,1011.80
2022-11-10T02:15:37.422Z,1011.89
2022-11-10T02:16:37.383Z,1011.89
2022-11-10T02:17:37.370Z,1011.94
2022-11-10T02:18:37.359Z,1011.93
2022-11-10T02:19:37.350Z,1011.97
2022-11-10T02:20:37.363Z,1012.00
2022-11-10T02:21:37.351Z,1011.90
2022-11-10T02:22:37.322Z,1012.00
2022-11-10T02:23:37.318Z,1011.98
2022-11-10T02:24:37.322Z,1012.02
2022-11-10T02:25:37.289Z,1012.06
2022-11-10T02:26:37.278Z,1012.02
2022-11-10T02:27:37.268Z,1012.00
2022-11-10T02:28:37.250Z,1012.06
2022-11-10T02:29:37.279Z,1012.06
2022-11-10T02:30:37.231Z,1012.03
2022-11-10T02:31:37.218Z,1012.09
2022-11-10T02:32:37.201Z,1012.10
2022-11-10T02:33:37.198Z,1012.06
2022-11-10T02:34:37.185Z,1012.03
2022-11-10T02:35:37.208Z,1012.10
2022-11-10T02:36:37.162Z,1012.12
2022-11-10T02:37:37.171Z,1012.12
2022-11-10T02:38:37.140Z,1012.13
2022-11-10T02:39:37.129Z,1012.05
2022-11-10T02:40:37.140Z,1012.12
2022-11-10T02:41:37.107Z,1012.15
2022-11-10T02:42:37.099Z,1012.14
2022-11-10T02:43:37.090Z,1012.12
2022-11-10T02:44:37.081Z,1012.20
2022-11-10T02:45:37.086Z,1012.15
2022-11-10T02:46:37.055Z,1012.14
2022-11-10T02:47:37.044Z,1012.22
2022-11-10T02:48:37.030Z,1012.19
2022-11-10T02:49:37.021Z,1012.19
2022-11-10T02:50:37.043Z,1012.24
2022-11-10T02:51:36.994Z,1012.22
2022-11-10T02:52:36.986Z,1012.27
2022-11-10T02:53:36.996Z,1012.21
2022-11-10T02:54:36.967Z,1012.26
2022-11-10T02:55:36.983Z,1012.27
2022-11-10T02:56:36.948Z,1012.31
2022-11-10T02:57:36.932Z,1012.28
2022-11-10T02:58:36.922Z,1012.24
2022-11-10T02:59:36.912Z,1012.28
2022-11-10T03:00:36.924Z,1012.31
2022-11-10T03:01:36.960Z,1012.27
2022-11-10T03:02:36.880Z,1012.33
2022-11-10T03:03:36.872Z,1012.35
2022-11-10T03:04:36.860Z,1012.32
2022-11-10T03:05:36.865Z,1012.34
2022-11-10T03:06:36.871Z,1012.39
2022-11-10T03:07:36.821Z,1012.41
2022-11-10T03:08:36.815Z,1012.37
2022-11-10T03:09:36.823Z,1012.44
2022-11-10T03:10:36.815Z,1012.49
2022-11-10T03:11:36.804Z,1012.49
2022-11-10T03:12:36.768Z,1012.45
2022-11-10T03:13:58.988Z,1012.50
2022-11-10T03:14:37.753Z,1012.57
2022-11-10T03:15:36.735Z,1012.54
2022-11-10T03:16:36.749Z,1012.58
2022-11-10T03:17:36.713Z,1012.59
2022-11-10T03:18:36.708Z,1012.62
2022-11-10T03:19:36.695Z,1012.59
2022-11-10T03:20:36.679Z,1012.64
2022-11-10T03:21:36.695Z,1012.65
2022-11-10T03:22:36.658Z,1012.64
2022-11-10T03:23:36.649Z,1012.69
2022-11-10T03:24:36.635Z,1012.78
2022-11-10T03:25:36.643Z,1012.77
2022-11-10T03:26:36.638Z,1012.80
2022-11-10T03:27:36.609Z,1012.81
2022-11-10T03:28:36.591Z,1012.79
2022-11-10T03:29:36.579Z,1012.81
2022-11-10T03:30:36.570Z,1012.82
2022-11-10T03:31:36.584Z,1012.83
2022-11-10T03:32:36.552Z,1012.92
2022-11-10T03:33:36.538Z,1012.90
2022-11-10T03:34:36.527Z,1012.92
2022-11-10T03:35:36.511Z,1012.94
2022-11-10T03:36:36.526Z,1012.99
2022-11-10T03:37:36.511Z,1012.87
2022-11-10T03:38:36.484Z,1012.95
2022-11-10T03:39:36.472Z,1012.94
2022-11-10T03:40:56.996Z,1012.93
2022-11-10T03:41:37.470Z,1012.88
2022-11-10T03:42:36.464Z,1012.98
2022-11-10T03:43:36.440Z,1013.00
2022-11-10T03:44:36.419Z,1013.00
2022-11-10T03:45:36.406Z,1012.97
2022-11-10T03:46:36.398Z,1012.99
2022-11-10T03:47:36.401Z,1013.00
2022-11-10T03:48:36.397Z,1012.99
2022-11-10T03:49:36.360Z,1013.02
2022-11-10T03:50:36.351Z,1013.00
2022-11-10T03:51:36.339Z,1012.98
2022-11-10T03:52:36.349Z,1013.01
2022-11-10T03:53:36.317Z,1013.05
2022-11-10T03:54:36.308Z,1013.05
2022-11-10T03:55:36.300Z,1013.06
2022-11-10T03:56:36.287Z,1013.00
2022-11-10T03:57:36.311Z,1013.10
2022-11-10T03:58:36.264Z,1013.10
2022-11-10T03:59:36.278Z,1013.13
2022-11-10T04:00:36.243Z,1013.13
2022-11-10T04:01:36.330Z,1013.18
2022-11-10T04:02:36.233Z,1013.15
2022-11-10T04:03:36.205Z,1013.16
2022-11-10T04:04:36.217Z,1013.15
2022-11-10T04:05:36.187Z,1013.19
2022-11-10T04:06:36.279Z,1013.16
2022-11-10T04:07:36.190Z,1013.17
2022-11-10T04:08:36.157Z,1013.21
2022-11-10T04:09:36.145Z,1013.24
2022-11-10T04:10:36.131Z,1013.29
2022-11-10T04:11:36.149Z,1013.29
2022-11-10T04:12:36.135Z,1013.23
2022-11-10T04:13:36.119Z,1013.26
2022-11-10T04:14:36.088Z,1013.29
2022-11-10T04:15:36.082Z,1013.29
2022-11-10T04:16:36.068Z,1013.26
2022-11-10T04:17:36.086Z,1013.33
2022-11-10T04:18:36.042Z,1013.31
2022-11-10T04:19:36.033Z,1013.35
2022-11-10T04:20:36.025Z,1013.40
2022-11-10T04:21:36.012Z,1013.42
2022-11-10T04:22:36.007Z,1013.38
2022-11-10T04:23:36.014Z,1013.40
2022-11-10T04:24:35.979Z,1013.46
2022-11-10T04:25:35.979Z,1013.46
2022-11-10T04:26:35.963Z,1013.48
2022-11-10T04:27:35.946Z,1013.48
2022-11-10T04:28:35.956Z,1013.55
2022-11-10T04:29:35.941Z,1013.55
2022-11-10T04:30:35.911Z,1013.62
2022-11-10T04:31:35.902Z,1013.58
2022-11-10T04:32:35.892Z,1013.64
2022-11-10T04:33:35.904Z,1013.65
2022-11-10T04:34:35.874Z,1013.63
2022-11-10T04:35:35.858Z,1013.65
2022-11-10T04:36:35.851Z,1013.66
2022-11-10T04:37:35.834Z,1013.76
2022-11-10T04:38:35.858Z,1013.70
2022-11-10T04:39:35.814Z,1013.65
2022-11-10T04:40:35.805Z,1013.70
2022-11-10T04:41:35.793Z,1013.74
2022-11-10T04:42:35.783Z,1013.71
2022-11-10T04:43:35.791Z,1013.72
2022-11-10T04:44:35.762Z,1013.70
2022-11-10T04:45:35.763Z,1013.72
2022-11-10T04:46:35.738Z,1013.76
2022-11-10T04:47:35.729Z,1013.72
2022-11-10T04:48:35.738Z,1013.75
2022-11-10T04:49:35.706Z,1013.78
2022-11-10T04:50:35.698Z,1013.79
2022-11-10T04:51:35.836Z,1013.78
2022-11-10T04:52:35.679Z,1013.82
2022-11-10T04:53:35.666Z,1013.82
2022-11-10T04:54:35.651Z,1013.73
2022-11-10T04:55:35.636Z,1013.77
2022-11-10T04:56:35.648Z,1013.75
2022-11-10T04:57:35.622Z,1013.85
2022-11-10T04:58:35.607Z,1013.80
2022-11-10T04:59:35.616Z,1013.88
2022-11-10T05:00:35.651Z,1013.85
2022-11-10T05:01:35.591Z,1013.96
2022-11-10T05:02:39.409Z,1013.95
2022-11-10T05:03:35.555Z,1013.87
2022-11-10T05:04:35.574Z,1013.93
2022-11-10T05:05:35.530Z,1013.91
2022-11-10T05:06:35.605Z,1013.90
2022-11-10T05:07:35.507Z,1013.90
2022-11-10T05:08:35.496Z,1013.94
2022-11-10T05:09:35.512Z,1014.00
2022-11-10T05:10:35.473Z,1013.97
2022-11-10T05:11:35.485Z,1014.02
2022-11-10T05:12:35.454Z,1014.03
2022-11-10T05:13:35.456Z,1014.01
2022-11-10T05:14:35.451Z,1014.07
2022-11-10T05:15:35.435Z,1014.02
2022-11-10T05:16:35.436Z,1014.08
2022-11-10T05:17:35.426Z,1014.06
2022-11-10T05:18:35.390Z,1013.99
2022-11-10T05:19:35.396Z,1014.05
2022-11-10T05:20:35.392Z,1014.05
2022-11-10T05:21:35.383Z,1014.10
2022-11-10T05:22:35.355Z,1014.08
2022-11-10T05:23:35.337Z,1014.22
2022-11-10T05:24:35.349Z,1014.15
2022-11-10T05:25:35.320Z,1014.20
2022-11-10T05:26:35.308Z,1014.15
2022-11-10T05:27:35.292Z,1014.18
2022-11-10T05:28:35.283Z,1014.26
2022-11-10T05:29:35.303Z,1014.26
2022-11-10T05:30:35.266Z,1014.31
2022-11-10T05:31:35.248Z,1014.34
2022-11-10T05:32:35.245Z,1014.36
2022-11-10T05:33:35.263Z,1014.34
2022-11-10T05:34:35.229Z,1014.34
2022-11-10T05:35:35.228Z,1014.34
2022-11-10T05:36:35.222Z,1014.46
2022-11-10T05:37:35.181Z,1014.41
2022-11-10T05:38:40.290Z,1014.47
2022-11-10T05:39:36.160Z,1014.50
2022-11-10T05:40:35.167Z,1014.55
2022-11-10T05:41:35.161Z,1014.55
2022-11-10T05:42:35.127Z,1014.59
2022-11-10T05:43:35.116Z,1014.56
2022-11-10T05:44:35.105Z,1014.61
2022-11-10T05:45:35.098Z,1014.60
2022-11-10T05:46:35.097Z,1014.68
2022-11-10T05:47:35.074Z,1014.67
2022-11-10T05:48:35.083Z,1014.76
2022-11-10T05:49:35.073Z,1014.80
2022-11-10T05:50:35.041Z,1014.79
2022-11-10T05:51:35.027Z,1014.83
2022-11-10T05:52:35.034Z,1014.80
2022-11-10T05:53:35.032Z,1014.82
2022-11-10T05:54:34.994Z,1014.91
2022-11-10T05:55:34.987Z,1014.90
2022-11-10T05:56:34.977Z,1014.90
2022-11-10T05:57:34.960Z,1014.90
2022-11-10T05:58:34.978Z,1014.89
2022-11-10T05:59:34.940Z,1014.94
2022-11-10T06:00:34.929Z,1015.00
2022-11-10T06:01:34.921Z,1015.05
2022-11-10T06:02:34.941Z,1015.02
2022-11-10T06:03:34.951Z,1015.04
2022-11-10T06:04:34.911Z,1015.10
2022-11-10T06:05:34.892Z,1015.01
2022-11-10T06:06:34.892Z,1015.04
2022-11-10T06:07:34.852Z,1015.08
2022-11-10T06:08:34.859Z,1015.11
2022-11-10T06:09:34.834Z,1015.13
2022-11-10T06:10:34.839Z,1015.15
2022-11-10T06:11:34.815Z,1015.16
2022-11-10T06:12:34.798Z,1015.18
2022-11-10T06:13:34.788Z,1015.16
2022-11-10T06:14:34.782Z,1015.14
2022-11-10T06:15:34.796Z,1015.22
2022-11-10T06:16:34.751Z,1015.26
2022-11-10T06:17:34.743Z,1015.15
2022-11-10T06:18:34.734Z,1015.23
2022-11-10T06:19:34.721Z,1015.31
2022-11-10T06:20:34.714Z,1015.28
2022-11-10T06:21:34.741Z,1015.35
2022-11-10T06:22:34.690Z,1015.35
2022-11-10T06:23:34.677Z,1015.36
2022-11-10T06:24:34.670Z,1015.39
2022-11-10T06:25:34.692Z,1015.42
2022-11-10T06:26:34.670Z,1015.53
2022-11-10T06:27:34.636Z,1015.49
2022-11-10T06:28:34.622Z,1015.43
2022-11-10T06:29:34.612Z,1015.48
2022-11-10T06:30:34.599Z,1015.52
2022-11-10T06:31:34.617Z,1015.56
2022-11-10T06:32:34.578Z,1015.58
2022-11-10T06:33:34.566Z,1015.56
2022-11-10T06:34:34.556Z,1015.58
2022-11-10T06:35:34.543Z,1015.73
2022-11-10T06:36:34.553Z,1015.61
2022-11-10T06:37:34.546Z,1015.62
2022-11-10T06:38:34.510Z,1015.73
2022-11-10T06:39:34.504Z,1015.75
2022-11-10T06:40:34.487Z,1015.79
2022-11-10T06:41:34.504Z,1015.79
2022-11-10T06:42:34.471Z,1015.83
2022-11-10T06:43:34.458Z,1015.84
2022-11-10T06:44:34.448Z,1015.90
2022-11-10T06:45:34.435Z,1015.88
2022-11-10T06:46:38.232Z,1015.93
2022-11-10T06:47:35.412Z,1015.92
2022-11-10T06:48:34.430Z,1015.98
2022-11-10T06:49:34.396Z,1015.97
2022-11-10T06:50:34.379Z,1015.98
2022-11-10T06:51:34.401Z,1016.09
2022-11-10T06:52:34.354Z,1016.11
2022-11-10T06:53:34.598Z,1016.13
2022-11-10T06:54:34.333Z,1016.16
2022-11-10T06:55:34.327Z,1016.13
2022-11-10T06:56:34.316Z,1016.16
2022-11-10T06:57:34.301Z,1016.16
2022-11-10T06:58:34.309Z,1016.17
2022-11-10T06:59:34.282Z,1016.22
2022-11-10T07:00:34.273Z,1016.28
2022-11-10T07:01:34.349Z,1016.26
2022-11-10T07:02:34.287Z,1016.33
2022-11-10T07:03:34.234Z,1016.36
2022-11-10T07:04:34.225Z,1016.35
2022-11-10T07:05:34.220Z,1016.40
2022-11-10T07:06:34.246Z,1016.45
2022-11-10T07:07:34.219Z,1016.46
2022-11-10T07:08:34.184Z,1016.46
2022-11-10T07:09:34.187Z,1016.51
2022-11-10T07:10:34.161Z,1016.52
2022-11-10T07:11:34.153Z,1016.50
2022-11-10T07:12:34.142Z,1016.58
2022-11-10T07:13:34.140Z,1016.57
2022-11-10T07:14:34.135Z,1016.60
2022-11-10T07:15:34.101Z,1016.61
2022-11-10T07:16:34.097Z,1016.62
2022-11-10T07:17:34.080Z,1016.58
2022-11-10T07:18:34.099Z,1016.61
2022-11-10T07:19:34.061Z,1016.59
2022-11-10T07:20:34.053Z,1016.64
2022-11-10T07:21:34.038Z,1016.65
2022-11-10T07:22:34.031Z,1016.64
2022-11-10T07:23:34.033Z,1016.67
2022-11-10T07:24:33.999Z,1016.66
2022-11-10T07:25:34.019Z,1016.69
2022-11-10T07:26:34.003Z,1016.74
2022-11-10T07:27:33.967Z,1016.70
2022-11-10T07:28:33.983Z,1016.73
2022-11-10T07:29:34.199Z,1016.78
2022-11-10T07:30:33.938Z,1016.75
2022-11-10T07:31:33.933Z,1016.83
2022-11-10T07:32:33.921Z,1016.80
2022-11-10T07:33:33.953Z,1016.86
2022-11-10T07:34:33.896Z,1016.86
2022-11-10T07:35:33.913Z,1016.88
2022-11-10T07:36:33.872Z,1016.88
2022-11-10T07:37:33.881Z,1016.94
2022-11-10T07:38:33.846Z,1016.94
2022-11-10T07:39:34.747Z,1016.92
2022-11-10T07:40:33.824Z,1016.92
2022-11-10T07:41:33.837Z,1016.88
2022-11-10T07:42:33.822Z,1016.92
2022-11-10T07:43:33.795Z,1016.91
2022-11-10T07:44:33.812Z,1017.00
2022-11-10T07:45:33.784Z,1016.96
2022-11-10T07:46:33.764Z,1016.97
2022-11-10T07:47:33.752Z,1016.98
2022-11-10T07:48:33.741Z,1017.07
2022-11-10T07:49:33.753Z,1017.09
2022-11-10T07:50:33.725Z,1017.08
2022-11-10T07:51:33.715Z,1017.10
2022-11-10T07:52:33.700Z,1017.07
2022-11-10T07:53:33.706Z,1017.05
2022-11-10T07:54:33.689Z,1017.11
2022-11-10T07:55:33.672Z,1017.12
2022-11-10T07:56:33.654Z,1017.17
2022-11-10T07:57:33.723Z,1017.19
2022-11-10T07:58:33.653Z,1017.19
2022-11-10T07:59:33.622Z,1017.23
2022-11-10T08:00:33.632Z,1017.18
2022-11-10T08:01:33.623Z,1017.25
2022-11-10T08:02:33.586Z,1017.24
2022-11-10T08:03:33.609Z,1017.22
2022-11-10T08:04:33.562Z,1017.16
2022-11-10T08:05:33.553Z,1017.22
2022-11-10T08:06:36.222Z,1017.25
2022-11-10T08:07:33.649Z,1017.21
2022-11-10T08:08:33.544Z,1017.27
2022-11-10T08:09:33.512Z,1017.24
2022-11-10T08:10:33.503Z,1017.32
2022-11-10T08:11:33.490Z,1017.29
2022-11-10T08:12:33.859Z,1017.27
2022-11-10T08:13:33.508Z,1017.31
2022-11-10T08:14:33.451Z,1017.33
2022-11-10T08:15:33.440Z,1017.32
2022-11-10T08:16:33.438Z,1017.42
2022-11-10T08:17:33.443Z,1017.34
2022-11-10T08:18:35.549Z,1017.39
2022-11-10T08:19:33.407Z,1017.42
2022-11-10T08:20:33.393Z,1017.38
2022-11-10T08:21:33.376Z,1017.42
2022-11-10T08:22:33.387Z,1017.44
2022-11-10T08:23:33.354Z,1017.45
2022-11-10T08:24:33.362Z,1017.49
2022-11-10T08:25:35.299Z,1017.51
2022-11-10T08:26:33.326Z,1017.49
2022-11-10T08:27:33.308Z,1017.53
2022-11-10T08:28:33.329Z,1017.46
2022-11-10T08:29:33.329Z,1017.50
2022-11-10T08:30:33.277Z,1017.49
2022-11-10T08:31:33.268Z,1017.49
2022-11-10T08:32:33.257Z,1017.54
2022-11-10T08:33:33.248Z,1017.43
2022-11-10T08:34:33.248Z,1017.58
2022-11-10T08:35:33.221Z,1017.56
2022-11-10T08:36:33.215Z,1017.58
2022-11-10T08:37:33.205Z,1017.62
2022-11-10T08:38:33.201Z,1017.59
2022-11-10T08:39:39.515Z,1017.64
2022-11-10T08:40:34.172Z,1017.67
2022-11-10T08:41:33.158Z,1017.76
2022-11-10T08:42:33.150Z,1017.81
2022-11-10T08:43:33.157Z,1017.72
2022-11-10T08:44:33.158Z,1017.82
2022-11-10T08:45:33.148Z,1017.85
2022-11-10T08:46:33.102Z,1017.80
2022-11-10T08:47:33.086Z,1017.85
2022-11-10T08:48:33.084Z,1017.83
2022-11-10T08:49:33.092Z,1017.92
2022-11-10T08:50:33.059Z,1017.95
2022-11-10T08:51:38.723Z,1017.93
2022-11-10T08:52:34.039Z,1017.88
2022-11-10T08:53:33.030Z,1018.02
2022-11-10T08:54:33.050Z,1017.95
2022-11-10T08:55:33.018Z,1018.05
2022-11-10T08:56:32.995Z,1018.03
2022-11-10T08:57:32.986Z,1017.99
2022-11-10T08:58:32.976Z,1018.17
2022-11-10T08:59:32.989Z,1018.14
2022-11-10T09:00:32.968Z,1018.11
2022-11-10T09:01:33.084Z,1018.15
2022-11-10T09:02:32.930Z,1018.09
2022-11-10T09:03:32.917Z,1018.23
2022-11-10T09:04:32.977Z,1018.18
2022-11-10T09:05:32.927Z,1018.29
2022-11-10T09:06:32.968Z,1018.25
2022-11-10T09:07:32.874Z,1018.22
2022-11-10T09:08:32.862Z,1018.21
2022-11-10T09:09:32.849Z,1018.25
2022-11-10T09:10:32.867Z,1018.23
2022-11-10T09:11:32.830Z,1018.28
2022-11-10T09:12:32.821Z,1018.34
2022-11-10T09:13:33.066Z,1018.40
2022-11-10T09:14:32.803Z,1018.30
2022-11-10T09:15:32.789Z,1018.36
2022-11-10T09:16:32.771Z,1018.42
2022-11-10T09:17:32.792Z,1018.38
2022-11-10T09:18:32.777Z,1018.50
2022-11-10T09:19:32.807Z,1018.44
2022-11-10T09:20:32.743Z,1018.45
2022-11-10T09:21:32.722Z,1018.53
2022-11-10T09:22:32.712Z,1018.57
2022-11-10T09:23:32.725Z,1018.46
2022-11-10T09:24:32.693Z,1018.57
2022-11-10T09:25:32.679Z,1018.44
2022-11-10T09:26:32.663Z,1018.47
2022-11-10T09:27:32.654Z,1018.54
2022-11-10T09:28:32.665Z,1018.47
2022-11-10T09:29:32.638Z,1018.41
2022-11-10T09:30:32.671Z,1018.49
2022-11-10T09:31:32.610Z,1018.46
2022-11-10T09:32:32.604Z,1018.40
2022-11-10T09:33:32.603Z,1018.52
2022-11-10T09:34:32.586Z,1018.50
2022-11-10T09:35:32.589Z,1018.45
2022-11-10T09:36:32.555Z,1018.51
2022-11-10T09:37:32.545Z,1018.52
2022-11-10T09:38:32.529Z,1018.52
2022-11-10T09:39:32.526Z,1018.52
2022-11-10T09:40:32.543Z,1018.55
2022-11-10T09:41:32.498Z,1018.57
2022-11-10T09:42:32.488Z,1018.60
2022-11-10T09:43:32.519Z,1018.60
2022-11-10T09:44:32.467Z,1018.65
2022-11-10T09:45:37.787Z,1018.63
2022-11-10T09:46:33.472Z,1018.70
2022-11-10T09:47:56.384Z,1018.70
2022-11-10T09:48:33.455Z,1018.70
2022-11-10T09:49:32.436Z,1018.69
2022-11-10T09:50:32.400Z,1018.73
2022-11-10T09:51:32.523Z,1018.68
2022-11-10T09:52:32.384Z,1018.71
2022-11-10T09:53:32.378Z,1018.76
2022-11-10T09:54:32.387Z,1018.69
2022-11-10T09:55:32.347Z,1018.73
2022-11-10T09:56:32.334Z,1018.68
2022-11-10T09:57:32.329Z,1018.77
2022-11-10T09:58:32.343Z,1018.74
2022-11-10T09:59:32.407Z,1018.70
2022-11-10T10:00:32.297Z,1018.74
2022-11-10T10:01:32.348Z,1018.76
2022-11-10T10:02:32.271Z,1018.73
2022-11-10T10:03:32.260Z,1018.67
2022-11-10T10:04:32.249Z,1018.67
2022-11-10T10:05:32.258Z,1018.67
2022-11-10T10:06:49.929Z,1018.64
2022-11-10T10:07:33.247Z,1018.70
2022-11-10T10:08:32.207Z,1018.71
2022-11-10T10:09:32.191Z,1018.68
2022-11-10T10:10:32.182Z,1018.66
2022-11-10T10:11:32.195Z,1018.72
2022-11-10T10:12:32.160Z,1018.66
2022-11-10T10:13:32.149Z,1018.73
2022-11-10T10:14:32.137Z,1018.74
2022-11-10T10:15:32.124Z,1018.70
2022-11-10T10:16:32.115Z,1018.71
2022-11-10T10:17:32.132Z,1018.74
2022-11-10T10:18:32.092Z,1018.74
2022-11-10T10:19:32.077Z,1018.78
2022-11-10T10:20:32.073Z,1018.76
2022-11-10T10:21:32.082Z,1018.82
2022-11-10T10:22:32.077Z,1018.81
2022-11-10T10:24:02.183Z,1018.80
2022-11-10T10:24:33.025Z,1018.80
2022-11-10T10:25:32.017Z,1018.74
2022-11-10T10:26:32.002Z,1018.86
2022-11-10T10:27:32.014Z,1018.79
2022-11-10T10:28:31.986Z,1018.79
2022-11-10T10:29:37.193Z,1018.74
2022-11-10T10:30:32.958Z,1018.73
2022-11-10T10:31:31.947Z,1018.71
2022-11-10T10:32:31.965Z,1018.76
2022-11-10T10:33:31.924Z,1018.76
2022-11-10T10:34:31.917Z,1018.77
2022-11-10T10:35:31.919Z,1018.74
2022-11-10T10:36:31.890Z,1018.78
2022-11-10T10:37:31.943Z,1018.81
2022-11-10T10:38:31.875Z,1018.79
2022-11-10T10:39:31.856Z,1018.85
2022-11-10T10:40:31.844Z,1018.90
2022-11-10T10:41:31.840Z,1018.92
2022-11-10T10:42:31.830Z,1018.88
2022-11-10T10:43:31.828Z,1018.86
2022-11-10T10:44:31.824Z,1018.88
2022-11-10T10:45:31.900Z,1018.91
2022-11-10T10:46:35.706Z,1018.85
2022-11-10T10:47:31.774Z,1018.91
2022-11-10T10:48:31.757Z,1018.96
2022-11-10T10:49:31.905Z,1018.87
2022-11-10T10:50:31.757Z,1019.01
2022-11-10T10:51:31.735Z,1019.02
2022-11-10T10:52:31.717Z,1018.97
2022-11-10T10:53:31.726Z,1018.92
2022-11-10T10:54:31.712Z,1018.93
2022-11-10T10:55:31.709Z,1019.03
2022-11-10T10:56:31.672Z,1018.96
2022-11-10T10:57:31.671Z,1019.00
2022-11-10T10:58:31.645Z,1019.00
2022-11-10T10:59:31.636Z,1018.97
2022-11-10T11:00:31.652Z,1019.01
2022-11-10T11:01:31.678Z,1019.03
2022-11-10T11:02:31.605Z,1019.06
2022-11-10T11:03:31.590Z,1018.97
2022-11-10T11:04:31.589Z,1019.00
2022-11-10T11:05:31.597Z,1019.07
2022-11-10T11:06:31.667Z,1019.14
2022-11-10T11:07:31.549Z,1019.04
2022-11-10T11:08:31.540Z,1019.04
2022-11-10T11:09:31.547Z,1019.03
2022-11-10T11:10:31.545Z,1019.04
2022-11-10T11:11:31.507Z,1019.10
2022-11-10T11:12:31.500Z,1019.10
2022-11-10T11:13:31.482Z,1019.06
2022-11-10T11:14:31.479Z,1019.07
2022-11-10T11:15:31.501Z,1018.99
2022-11-10T11:16:31.452Z,1019.01
2022-11-10T11:17:31.507Z,1019.02
2022-11-10T11:18:31.430Z,1019.05
2022-11-10T11:19:31.421Z,1019.04
2022-11-10T11:20:31.433Z,1018.99
2022-11-10T11:21:31.400Z,1019.15
2022-11-10T11:22:31.392Z,1019.13
2022-11-10T11:23:31.382Z,1019.12
2022-11-10T11:24:31.369Z,1019.01
2022-11-10T11:25:31.399Z,1019.14
2022-11-10T11:26:31.344Z,1019.10
2022-11-10T11:27:31.337Z,1019.09
2022-11-10T11:28:31.333Z,1019.12
2022-11-10T11:29:31.311Z,1019.12
2022-11-10T11:30:31.301Z,1019.13
2022-11-10T11:31:31.324Z,1019.14
2022-11-10T11:32:31.280Z,1019.13
2022-11-10T11:33:31.273Z,1019.20
2022-11-10T11:34:31.261Z,1019.19
2022-11-10T11:35:31.246Z,1019.16
2022-11-10T11:36:31.259Z,1019.20
2022-11-10T11:37:31.225Z,1019.15
2022-11-10T11:38:31.214Z,1019.18
2022-11-10T11:39:31.205Z,1019.22
2022-11-10T11:40:31.192Z,1019.18
2022-11-10T11:41:31.222Z,1019.25
2022-11-10T11:42:31.192Z,1019.27
2022-11-10T11:43:31.161Z,1019.28
2022-11-10T11:44:31.146Z,1019.23
2022-11-10T11:45:31.139Z,1019.24
2022-11-10T11:46:31.129Z,1019.11
2022-11-10T11:47:31.148Z,1019.15
2022-11-10T11:48:31.100Z,1019.18
2022-11-10T11:49:31.092Z,1019.12
2022-11-10T11:50:31.079Z,1019.20
2022-11-10T11:51:31.072Z,1019.20
2022-11-10T11:52:31.091Z,1019.20
2022-11-10T11:53:31.046Z,1019.21
2022-11-10T11:54:31.045Z,1019.13
2022-11-10T11:55:31.026Z,1019.20
2022-11-10T11:56:31.009Z,1019.16
2022-11-10T11:57:34.394Z,1019.19
2022-11-10T11:58:32.012Z,1019.22
2022-11-10T11:59:30.979Z,1019.23
2022-11-10T12:00:30.967Z,1019.19
2022-11-10T12:01:30.978Z,1019.20
2022-11-10T12:02:31.053Z,1019.20
2022-11-10T12:03:30.964Z,1019.18
2022-11-10T12:04:30.923Z,1019.18
2022-11-10T12:05:30.913Z,1019.20